createdAt,value
2022-08-22T00:00:11.889Z,1
2022-08-22T00:01:55.594Z,1
2022-08-22T00:03:39.289Z,1
2022-08-22T00:05:22.999Z,0
2022-08-22T00:07:06.698Z,1
2022-08-22T00:08:50.399Z,1
2022-08-22T00:10:34.124Z,1
2022-08-22T00:12:17.802Z,1
2022-08-22T00:14:01.507Z,1
2022-08-22T00:15:45.208Z,1
2022-08-22T00:17:28.902Z,1
2022-08-22T00:19:12.622Z,1
2022-08-22T00:20:56.315Z,1
2022-08-22T00:22:40.010Z,1
2022-08-22T00:24:23.713Z,1
2022-08-22T00:26:07.421Z,1
2022-08-22T00:27:51.162Z,1
2022-08-22T00:29:34.828Z,1
2022-08-22T00:31:18.521Z,1
2022-08-22T00:33:02.236Z,1
2022-08-22T00:34:45.932Z,1
2022-08-22T00:36:29.624Z,0
2022-08-22T00:38:13.328Z,1
2022-08-22T00:39:57.030Z,1
2022-08-22T00:41:40.728Z,1
2022-08-22T00:43:24.433Z,1
2022-08-22T00:45:08.137Z,0
2022-08-22T00:46:51.838Z,0
2022-08-22T00:48:35.542Z,1
2022-08-22T00:50:19.237Z,0
2022-08-22T00:52:02.945Z,1
2022-08-22T00:53:46.652Z,0
2022-08-22T00:55:30.340Z,2
2022-08-22T00:57:14.044Z,1
2022-08-22T00:58:57.764Z,1
2022-08-22T01:00:41.445Z,1
2022-08-22T01:02:25.150Z,1
2022-08-22T01:04:08.862Z,0
2022-08-22T01:05:52.562Z,1
2022-08-22T01:07:36.274Z,1
2022-08-22T01:09:19.979Z,0
2022-08-22T01:11:03.686Z,1
2022-08-22T01:12:47.383Z,0
2022-08-22T01:14:31.091Z,1
2022-08-22T01:16:14.785Z,1
2022-08-22T01:17:58.486Z,1
2022-08-22T01:19:42.188Z,1
2022-08-22T01:21:25.898Z,1
2022-08-22T01:23:09.610Z,1
2022-08-22T01:24:53.291Z,0
2022-08-22T01:26:37.014Z,1
2022-08-22T01:28:20.695Z,1
2022-08-22T01:30:04.402Z,0
2022-08-22T01:31:48.105Z,0
2022-08-22T01:33:31.806Z,1
2022-08-22T01:35:15.537Z,1
2022-08-22T01:36:59.208Z,1
2022-08-22T01:38:42.909Z,1
2022-08-22T01:40:26.633Z,0
2022-08-22T01:42:10.308Z,1
2022-08-22T01:43:54.010Z,0
2022-08-22T01:45:37.719Z,1
2022-08-22T01:47:21.419Z,1
2022-08-22T01:49:05.112Z,1
2022-08-22T01:50:48.821Z,1
2022-08-22T01:52:32.516Z,1
2022-08-22T01:54:16.217Z,1
2022-08-22T01:55:59.921Z,0
2022-08-22T01:57:43.632Z,0
2022-08-22T01:59:27.316Z,1
2022-08-22T02:01:11.016Z,1
2022-08-22T02:02:54.730Z,1
2022-08-22T02:04:38.440Z,1
2022-08-22T02:06:22.128Z,1
2022-08-22T02:08:05.847Z,0
2022-08-22T02:09:49.532Z,0
2022-08-22T02:11:33.230Z,0
2022-08-22T02:13:16.928Z,0
2022-08-22T02:15:00.633Z,1
2022-08-22T02:16:44.328Z,1
2022-08-22T02:18:28.038Z,1
2022-08-22T02:20:11.737Z,1
2022-08-22T02:21:55.432Z,1
2022-08-22T02:23:39.132Z,0
2022-08-22T02:25:22.838Z,1
2022-08-22T02:27:06.546Z,1
2022-08-22T02:28:50.242Z,1
2022-08-22T02:30:33.941Z,1
2022-08-22T02:32:17.641Z,1
2022-08-22T02:34:01.348Z,1
2022-08-22T02:35:45.053Z,2
2022-08-22T02:37:28.749Z,0
2022-08-22T02:39:12.452Z,1
2022-08-22T02:40:56.145Z,0
2022-08-22T02:42:39.846Z,0
2022-08-22T02:44:23.568Z,2
2022-08-22T02:46:07.255Z,0
2022-08-22T02:47:50.964Z,1
2022-08-22T02:49:34.657Z,1
2022-08-22T02:51:18.352Z,0
2022-08-22T02:53:02.057Z,0
2022-08-22T02:54:45.756Z,0
2022-08-22T02:56:29.457Z,0
2022-08-22T02:58:13.158Z,1
2022-08-22T02:59:56.860Z,0
2022-08-22T03:01:40.567Z,1
2022-08-22T03:03:24.275Z,1
2022-08-22T03:05:07.965Z,1
2022-08-22T03:06:51.664Z,1
2022-08-22T03:08:35.373Z,0
2022-08-22T03:10:19.064Z,0
2022-08-22T03:12:02.774Z,1
2022-08-22T03:13:46.473Z,1
2022-08-22T03:15:30.185Z,1
2022-08-22T03:17:13.881Z,1
2022-08-22T03:18:57.594Z,0
2022-08-22T03:20:41.294Z,0
2022-08-22T03:22:24.995Z,1
2022-08-22T03:24:08.683Z,1
2022-08-22T03:25:52.394Z,1
2022-08-22T03:27:36.104Z,1
2022-08-22T03:29:19.793Z,1
2022-08-22T03:31:03.517Z,0
2022-08-22T03:32:47.202Z,0
2022-08-22T03:34:30.895Z,1
2022-08-22T03:36:14.603Z,0
2022-08-22T03:37:58.300Z,0
2022-08-22T03:39:42.009Z,1
2022-08-22T03:41:25.708Z,1
2022-08-22T03:43:09.403Z,1
2022-08-22T03:44:53.115Z,1
2022-08-22T03:46:36.814Z,1
2022-08-22T03:48:20.514Z,1
2022-08-22T03:50:04.216Z,1
2022-08-22T03:51:47.924Z,1
2022-08-22T03:53:31.615Z,0
2022-08-22T03:55:15.316Z,1
2022-08-22T03:56:59.026Z,2
2022-08-22T03:58:42.721Z,2
2022-08-22T04:00:26.427Z,1
2022-08-22T04:02:10.132Z,2
2022-08-22T04:03:53.830Z,2
2022-08-22T04:05:37.532Z,3
2022-08-22T04:07:21.229Z,2
2022-08-22T04:09:04.939Z,4
2022-08-22T04:10:48.649Z,5
2022-08-22T04:12:32.331Z,5
2022-08-22T04:14:16.041Z,7
2022-08-22T04:15:59.743Z,8
2022-08-22T04:17:43.439Z,9
2022-08-22T04:19:27.147Z,10
2022-08-22T04:21:10.843Z,12
2022-08-22T04:22:54.555Z,13
2022-08-22T04:24:38.259Z,16
2022-08-22T04:26:21.950Z,18
2022-08-22T04:28:05.652Z,22
2022-08-22T04:29:49.362Z,24
2022-08-22T04:31:33.055Z,29
2022-08-22T04:33:16.762Z,34
2022-08-22T04:35:00.469Z,41
2022-08-22T04:36:44.166Z,48
2022-08-22T04:38:27.860Z,57
2022-08-22T04:40:11.565Z,69
2022-08-22T04:41:55.276Z,82
2022-08-22T04:43:38.975Z,93
2022-08-22T04:45:22.673Z,106
2022-08-22T04:47:06.377Z,114
2022-08-22T04:48:50.100Z,122
2022-08-22T04:50:33.799Z,124
2022-08-22T04:52:17.482Z,136
2022-08-22T04:54:01.184Z,148
2022-08-22T04:55:44.900Z,152
2022-08-22T04:57:28.596Z,163
2022-08-22T04:59:12.303Z,173
2022-08-22T05:00:55.988Z,180
2022-08-22T05:02:39.707Z,191
2022-08-22T05:04:23.394Z,201
2022-08-22T05:06:07.119Z,208
2022-08-22T05:07:50.800Z,188
2022-08-22T05:09:34.499Z,217
2022-08-22T05:11:18.197Z,194
2022-08-22T05:13:01.908Z,168
2022-08-22T05:14:45.605Z,160
2022-08-22T05:16:29.302Z,154
2022-08-22T05:18:13.023Z,153
2022-08-22T05:19:56.696Z,165
2022-08-22T05:21:40.405Z,198
2022-08-22T05:23:24.117Z,168
2022-08-22T05:25:07.811Z,172
2022-08-22T05:26:51.515Z,189
2022-08-22T05:28:35.219Z,233
2022-08-22T05:30:18.922Z,192
2022-08-22T05:32:02.627Z,211
2022-08-22T05:33:46.323Z,263
2022-08-22T05:35:30.019Z,252
2022-08-22T05:37:13.726Z,306
2022-08-22T05:38:57.419Z,310
2022-08-22T05:40:41.133Z,311
2022-08-22T05:42:24.830Z,312
2022-08-22T05:44:08.534Z,316
2022-08-22T05:45:52.238Z,323
2022-08-22T05:47:35.942Z,328
2022-08-22T05:49:19.628Z,329
2022-08-22T05:51:03.332Z,331
2022-08-22T05:52:47.040Z,333
2022-08-22T05:54:30.740Z,336
2022-08-22T05:57:58.138Z,340
2022-08-22T05:59:41.844Z,341
2022-08-22T06:01:25.548Z,342
2022-08-22T06:03:09.247Z,344
2022-08-22T06:04:52.963Z,348
2022-08-22T06:06:36.658Z,350
2022-08-22T06:08:20.356Z,352
2022-08-22T06:10:04.087Z,353
2022-08-22T06:11:47.751Z,354
2022-08-22T06:13:31.462Z,356
2022-08-22T06:15:15.164Z,358
2022-08-22T06:16:58.861Z,359
2022-08-22T06:18:42.576Z,360
2022-08-22T06:20:26.268Z,360
2022-08-22T06:22:09.967Z,362
2022-08-22T06:23:53.674Z,362
2022-08-22T06:27:21.079Z,363
2022-08-22T06:29:04.785Z,365
2022-08-22T06:30:48.480Z,374
2022-08-22T06:32:32.181Z,375
2022-08-22T06:34:15.887Z,375
2022-08-22T06:35:59.593Z,376
2022-08-22T06:37:43.289Z,375
2022-08-22T06:39:27.012Z,376
2022-08-22T06:41:10.695Z,376
2022-08-22T06:42:54.409Z,377
2022-08-22T06:44:38.098Z,379
2022-08-22T06:46:21.802Z,381
2022-08-22T06:48:05.517Z,384
2022-08-22T06:49:49.200Z,385
2022-08-22T06:51:32.907Z,388
2022-08-22T06:53:16.605Z,389
2022-08-22T06:55:00.299Z,392
2022-08-22T06:56:44.008Z,394
2022-08-22T06:58:27.714Z,396
2022-08-22T07:00:11.415Z,398
2022-08-22T07:01:55.116Z,401
2022-08-22T07:03:38.809Z,402
2022-08-22T07:05:22.514Z,404
2022-08-22T07:07:06.219Z,408
2022-08-22T07:08:49.911Z,409
2022-08-22T07:10:33.624Z,411
2022-08-22T07:12:17.330Z,413
2022-08-22T07:14:01.021Z,415
2022-08-22T07:15:44.726Z,417
2022-08-22T07:17:28.426Z,419
2022-08-22T07:19:12.131Z,421
2022-08-22T07:20:55.832Z,423
2022-08-22T07:22:39.530Z,424
2022-08-22T07:24:23.233Z,427
2022-08-22T07:26:06.941Z,429
2022-08-22T07:27:50.631Z,432
2022-08-22T07:29:34.333Z,436
2022-08-22T07:31:18.044Z,435
2022-08-22T07:33:01.735Z,438
2022-08-22T07:34:45.439Z,439
2022-08-22T07:36:29.139Z,442
2022-08-22T07:38:12.839Z,443
2022-08-22T07:39:56.548Z,444
2022-08-22T07:41:40.252Z,446
2022-08-22T07:43:23.940Z,449
2022-08-22T07:45:07.647Z,450
2022-08-22T07:46:51.344Z,453
2022-08-22T07:48:35.049Z,454
2022-08-22T07:50:18.752Z,457
2022-08-22T07:52:02.471Z,459
2022-08-22T07:53:46.154Z,461
2022-08-22T07:55:29.882Z,463
2022-08-22T07:57:13.557Z,465
2022-08-22T07:58:57.264Z,467
2022-08-22T08:00:40.960Z,469
2022-08-22T08:02:24.673Z,471
2022-08-22T08:04:08.377Z,474
2022-08-22T08:05:52.061Z,475
2022-08-22T08:07:35.764Z,477
2022-08-22T08:09:19.469Z,479
2022-08-22T08:11:03.172Z,480
2022-08-22T08:12:46.874Z,483
2022-08-22T08:14:30.569Z,483
2022-08-22T08:16:14.278Z,485
2022-08-22T08:17:57.983Z,485
2022-08-22T08:19:41.678Z,488
2022-08-22T08:21:25.375Z,489
2022-08-22T08:23:09.084Z,489
2022-08-22T08:24:52.784Z,490
2022-08-22T08:26:36.497Z,492
2022-08-22T08:28:20.198Z,494
2022-08-22T08:30:03.894Z,495
2022-08-22T08:31:47.609Z,498
2022-08-22T08:33:31.295Z,500
2022-08-22T08:35:15.011Z,503
2022-08-22T08:36:58.706Z,504
2022-08-22T08:38:42.407Z,505
2022-08-22T08:40:26.105Z,505
2022-08-22T08:42:09.814Z,506
2022-08-22T08:43:53.501Z,509
2022-08-22T08:45:37.205Z,511
2022-08-22T08:47:20.914Z,511
2022-08-22T08:49:04.619Z,513
2022-08-22T08:50:48.313Z,514
2022-08-22T08:52:32.031Z,516
2022-08-22T08:54:15.725Z,518
2022-08-22T08:55:59.458Z,518
2022-08-22T08:57:43.155Z,520
2022-08-22T08:59:26.824Z,522
2022-08-22T09:01:10.530Z,523
2022-08-22T09:02:54.232Z,524
2022-08-22T09:04:37.976Z,526
2022-08-22T09:06:21.675Z,527
2022-08-22T09:08:05.360Z,527
2022-08-22T09:09:49.040Z,530
2022-08-22T09:11:32.740Z,531
2022-08-22T09:13:16.436Z,533
2022-08-22T09:15:00.187Z,535
2022-08-22T09:16:43.883Z,536
2022-08-22T09:18:27.544Z,537
2022-08-22T09:20:11.266Z,538
2022-08-22T09:21:54.968Z,540
2022-08-22T09:23:38.646Z,542
2022-08-22T09:27:06.052Z,545
2022-08-22T09:28:49.782Z,547
2022-08-22T09:30:33.460Z,548
2022-08-22T09:32:17.166Z,549
2022-08-22T09:34:00.864Z,551
2022-08-22T09:35:44.565Z,552
2022-08-22T09:37:28.296Z,556
2022-08-22T09:39:12.004Z,558
2022-08-22T09:40:55.667Z,561
2022-08-22T09:42:39.408Z,563
2022-08-22T09:44:23.073Z,565
2022-08-22T09:46:06.823Z,545
2022-08-22T09:47:50.481Z,552
2022-08-22T09:49:34.180Z,558
2022-08-22T09:51:17.886Z,560
2022-08-22T09:53:01.605Z,617
2022-08-22T09:54:45.285Z,622
2022-08-22T09:56:29.012Z,573
2022-08-22T09:58:12.701Z,576
2022-08-22T09:59:56.402Z,581
2022-08-22T10:01:40.096Z,586
2022-08-22T10:03:23.806Z,589
2022-08-22T10:05:07.501Z,592
2022-08-22T10:06:51.241Z,598
2022-08-22T10:08:34.936Z,604
2022-08-22T10:10:18.622Z,610
2022-08-22T10:12:02.339Z,616
2022-08-22T10:13:46.020Z,617
2022-08-22T10:15:29.714Z,639
2022-08-22T10:17:13.456Z,649
2022-08-22T10:18:57.114Z,660
2022-08-22T10:20:40.818Z,664
2022-08-22T10:22:24.527Z,667
2022-08-22T10:24:08.334Z,674
2022-08-22T10:25:51.938Z,682
2022-08-22T10:27:35.635Z,687
2022-08-22T10:29:19.362Z,693
2022-08-22T10:31:03.040Z,693
2022-08-22T10:32:46.730Z,695
2022-08-22T10:34:30.440Z,701
2022-08-22T10:36:14.138Z,712
2022-08-22T10:37:57.854Z,721
2022-08-22T10:39:41.543Z,731
2022-08-22T10:41:25.250Z,735
2022-08-22T10:43:08.944Z,740
2022-08-22T10:44:52.709Z,744
2022-08-22T10:46:36.397Z,743
2022-08-22T10:48:20.058Z,745
2022-08-22T10:50:03.781Z,745
2022-08-22T10:51:47.467Z,745
2022-08-22T10:53:31.176Z,746
2022-08-22T10:55:14.895Z,745
2022-08-22T10:56:58.614Z,745
2022-08-22T10:58:42.274Z,745
2022-08-22T11:00:25.999Z,736
2022-08-22T11:02:09.673Z,746
2022-08-22T11:03:53.410Z,745
2022-08-22T11:05:37.103Z,745
2022-08-22T11:07:20.785Z,746
2022-08-22T11:09:04.543Z,746
2022-08-22T11:10:48.202Z,746
2022-08-22T11:12:31.896Z,745
2022-08-22T11:14:15.602Z,746
2022-08-22T11:15:59.333Z,745
2022-08-22T11:17:43.027Z,745
2022-08-22T11:19:26.704Z,744
2022-08-22T11:21:10.394Z,746
2022-08-22T11:22:54.093Z,745
2022-08-22T11:24:37.828Z,745
2022-08-22T11:26:21.506Z,745
2022-08-22T11:28:05.258Z,744
2022-08-22T11:29:48.940Z,746
2022-08-22T11:31:32.628Z,746
2022-08-22T11:33:16.319Z,727
2022-08-22T11:35:00.012Z,746
2022-08-22T11:36:43.730Z,745
2022-08-22T11:38:27.448Z,746
2022-08-22T11:40:11.112Z,746
2022-08-22T11:41:54.823Z,745
2022-08-22T11:43:38.538Z,517
2022-08-22T11:45:22.224Z,497
2022-08-22T11:47:05.928Z,745
2022-08-22T11:48:49.627Z,520
2022-08-22T11:50:33.360Z,623
2022-08-22T11:52:17.037Z,746
2022-08-22T11:54:00.730Z,746
2022-08-22T11:55:44.440Z,746
2022-08-22T11:57:28.159Z,746
2022-08-22T11:59:11.879Z,744
2022-08-22T12:00:55.543Z,746
2022-08-22T12:02:39.245Z,745
2022-08-22T12:04:22.954Z,746
2022-08-22T12:06:06.657Z,745
2022-08-22T12:07:50.380Z,745
2022-08-22T12:09:34.061Z,746
2022-08-22T12:11:17.776Z,746
2022-08-22T12:13:01.477Z,746
2022-08-22T12:14:45.166Z,746
2022-08-22T12:16:28.870Z,746
2022-08-22T12:18:12.568Z,746
2022-08-22T12:19:56.278Z,747
2022-08-22T12:24:56.480Z,746
2022-08-22T12:26:51.108Z,746
2022-08-22T12:28:34.784Z,746
2022-08-22T12:30:18.488Z,745
2022-08-22T12:32:02.181Z,746
2022-08-22T12:33:45.883Z,746
2022-08-22T12:35:29.601Z,746
2022-08-22T12:37:13.326Z,746
2022-08-22T12:38:57.038Z,746
2022-08-22T12:40:40.694Z,737
2022-08-22T12:42:24.397Z,747
2022-08-22T12:44:08.109Z,745
2022-08-22T12:45:51.817Z,746
2022-08-22T12:47:35.506Z,747
2022-08-22T12:49:19.238Z,746
2022-08-22T12:51:02.940Z,746
2022-08-22T12:52:46.616Z,495
2022-08-22T12:54:30.314Z,533
2022-08-22T12:56:14.030Z,745
2022-08-22T12:57:57.750Z,746
2022-08-22T13:01:25.123Z,533
2022-08-22T13:03:08.831Z,564
2022-08-22T13:04:52.529Z,746
2022-08-22T13:06:36.248Z,747
2022-08-22T13:08:19.931Z,732
2022-08-22T13:10:03.642Z,745
2022-08-22T13:11:47.335Z,561
2022-08-22T13:13:31.033Z,477
2022-08-22T13:15:14.769Z,517
2022-08-22T13:16:58.445Z,453
2022-08-22T13:18:42.139Z,460
2022-08-22T13:20:25.846Z,497
2022-08-22T13:22:09.576Z,626
2022-08-22T13:23:53.288Z,557
2022-08-22T13:25:36.949Z,746
2022-08-22T13:27:20.670Z,653
2022-08-22T13:29:04.350Z,537
2022-08-22T13:30:48.052Z,536
2022-08-22T13:32:31.783Z,487
2022-08-22T13:34:15.455Z,484
2022-08-22T13:35:59.172Z,545
2022-08-22T13:37:42.861Z,489
2022-08-22T13:39:26.586Z,482
2022-08-22T13:41:10.271Z,480
2022-08-22T13:42:53.976Z,485
2022-08-22T13:44:37.702Z,746
2022-08-22T13:46:21.385Z,746
2022-08-22T13:48:05.070Z,746
2022-08-22T13:49:48.811Z,746
2022-08-22T13:51:32.475Z,746
2022-08-22T13:53:16.175Z,745
2022-08-22T13:54:59.934Z,746
2022-08-22T13:56:43.580Z,738
2022-08-22T13:58:27.304Z,747
2022-08-22T14:00:10.997Z,746
2022-08-22T14:01:54.706Z,746
2022-08-22T14:03:38.408Z,747
2022-08-22T14:05:22.144Z,747
2022-08-22T14:07:05.791Z,745
2022-08-22T14:08:49.527Z,746
2022-08-22T14:10:33.196Z,746
2022-08-22T14:12:16.902Z,747
2022-08-22T14:14:00.604Z,746
2022-08-22T14:15:44.304Z,738
2022-08-22T14:17:28.020Z,746
2022-08-22T14:19:11.708Z,746
2022-08-22T14:20:55.408Z,746
2022-08-22T14:22:39.112Z,746
2022-08-22T14:24:22.862Z,746
2022-08-22T14:26:06.513Z,746
2022-08-22T14:27:51.095Z,465
2022-08-22T14:29:33.927Z,482
2022-08-22T14:31:17.620Z,453
2022-08-22T14:34:45.029Z,423
2022-08-22T14:36:28.764Z,410
2022-08-22T14:38:12.438Z,418
2022-08-22T14:39:56.176Z,415
2022-08-22T14:41:39.853Z,431
2022-08-22T14:43:23.544Z,412
2022-08-22T14:45:07.251Z,417
2022-08-22T14:46:50.945Z,421
2022-08-22T14:48:34.654Z,429
2022-08-22T14:50:18.375Z,417
2022-08-22T14:52:02.056Z,485
2022-08-22T14:53:45.804Z,452
2022-08-22T14:55:29.460Z,462
2022-08-22T14:57:13.162Z,379
2022-08-22T14:58:56.861Z,375
2022-08-22T15:00:40.570Z,373
2022-08-22T15:02:24.275Z,372
2022-08-22T15:04:07.968Z,374
2022-08-22T15:05:51.670Z,360
2022-08-22T15:07:35.392Z,495
2022-08-22T15:09:19.840Z,350
2022-08-22T15:11:02.793Z,341
2022-08-22T15:12:46.513Z,337
2022-08-22T15:14:30.235Z,334
2022-08-22T15:16:13.893Z,333
2022-08-22T15:17:57.620Z,327
2022-08-22T15:19:41.314Z,360
2022-08-22T15:21:24.998Z,350
2022-08-22T15:23:08.702Z,370
2022-08-22T15:24:52.408Z,682
2022-08-22T15:26:36.149Z,621
2022-08-22T15:28:19.801Z,468
2022-08-22T15:30:03.504Z,694
2022-08-22T15:31:47.219Z,697
2022-08-22T15:33:30.903Z,720
2022-08-22T15:35:14.609Z,722
2022-08-22T15:38:42.025Z,722
2022-08-22T15:40:25.735Z,729
2022-08-22T15:42:09.428Z,725
2022-08-22T15:43:53.117Z,727
2022-08-22T15:45:36.859Z,723
2022-08-22T15:47:20.526Z,715
2022-08-22T15:49:04.237Z,715
2022-08-22T15:50:47.983Z,716
2022-08-22T15:52:31.656Z,713
2022-08-22T15:54:15.346Z,717
2022-08-22T15:55:59.040Z,715
2022-08-22T15:57:42.783Z,721
2022-08-22T15:59:26.455Z,728
2022-08-22T16:01:10.138Z,735
2022-08-22T16:02:53.847Z,735
2022-08-22T16:04:37.556Z,740
2022-08-22T16:06:21.248Z,739
2022-08-22T16:08:04.950Z,729
2022-08-22T16:09:48.655Z,714
2022-08-22T16:11:32.366Z,702
2022-08-22T16:13:16.063Z,710
2022-08-22T16:14:59.756Z,699
2022-08-22T16:16:43.461Z,684
2022-08-22T16:18:27.169Z,665
2022-08-22T16:20:10.863Z,619
2022-08-22T16:21:54.568Z,437
2022-08-22T16:23:38.271Z,608
2022-08-22T16:25:21.976Z,663
2022-08-22T16:27:05.675Z,631
2022-08-22T16:28:49.373Z,626
2022-08-22T16:30:33.081Z,387
2022-08-22T16:32:16.780Z,287
2022-08-22T16:34:00.473Z,415
2022-08-22T16:35:44.180Z,484
2022-08-22T16:37:27.882Z,336
2022-08-22T16:39:11.582Z,314
2022-08-22T16:40:55.289Z,256
2022-08-22T16:42:38.991Z,246
2022-08-22T16:44:22.693Z,244
2022-08-22T16:46:06.398Z,241
2022-08-22T16:47:50.094Z,243
2022-08-22T16:49:33.798Z,254
2022-08-22T16:51:17.504Z,266
2022-08-22T16:53:01.199Z,669
2022-08-22T16:54:44.905Z,256
2022-08-22T16:56:28.608Z,382
2022-08-22T16:58:12.303Z,684
2022-08-22T16:59:56.007Z,279
2022-08-22T17:01:39.724Z,232
2022-08-22T17:03:23.416Z,227
2022-08-22T17:05:07.127Z,224
2022-08-22T17:06:50.816Z,216
2022-08-22T17:08:34.520Z,213
2022-08-22T17:10:18.225Z,211
2022-08-22T17:12:01.916Z,214
2022-08-22T17:13:45.627Z,225
2022-08-22T17:15:29.327Z,298
2022-08-22T17:17:13.024Z,327
2022-08-22T17:18:56.732Z,746
2022-08-22T17:20:40.431Z,745
2022-08-22T17:22:24.142Z,330
2022-08-22T17:24:07.842Z,665
2022-08-22T17:25:51.539Z,727
2022-08-22T17:27:35.243Z,746
2022-08-22T17:29:18.945Z,747
2022-08-22T17:31:02.650Z,746
2022-08-22T17:32:46.348Z,746
2022-08-22T17:34:30.063Z,624
2022-08-22T17:36:13.754Z,172
2022-08-22T17:37:57.451Z,165
2022-08-22T17:39:41.163Z,160
2022-08-22T17:41:24.867Z,157
2022-08-22T17:43:08.564Z,297
2022-08-22T17:44:52.258Z,618
2022-08-22T17:46:35.961Z,565
2022-08-22T17:48:19.669Z,442
2022-08-22T17:50:03.360Z,119
2022-08-22T17:51:47.065Z,110
2022-08-22T17:53:30.775Z,153
2022-08-22T17:55:14.467Z,406
2022-08-22T17:56:58.179Z,182
2022-08-22T17:58:41.871Z,82
2022-08-22T18:00:25.579Z,74
2022-08-22T18:02:09.281Z,68
2022-08-22T18:03:52.978Z,64
2022-08-22T18:05:36.685Z,67
2022-08-22T18:07:20.394Z,116
2022-08-22T18:09:04.082Z,124
2022-08-22T18:10:47.787Z,76
2022-08-22T18:12:31.493Z,45
2022-08-22T18:14:15.196Z,38
2022-08-22T18:15:58.901Z,33
2022-08-22T18:17:42.596Z,28
2022-08-22T18:19:26.304Z,24
2022-08-22T18:21:10.003Z,20
2022-08-22T18:24:37.405Z,29
2022-08-22T18:26:21.110Z,27
2022-08-22T18:28:04.815Z,11
2022-08-22T18:29:48.512Z,9
2022-08-22T18:31:32.219Z,8
2022-08-22T18:33:15.917Z,8
2022-08-22T18:34:59.626Z,8
2022-08-22T18:38:27.028Z,6
2022-08-22T18:40:10.734Z,6
2022-08-22T18:41:54.426Z,5
2022-08-22T18:43:38.127Z,3
2022-08-22T18:45:21.839Z,3
2022-08-22T18:47:05.539Z,2
2022-08-22T18:48:49.242Z,2
2022-08-22T18:50:32.937Z,2
2022-08-22T18:52:16.645Z,1
2022-08-22T18:54:00.352Z,1
2022-08-22T18:55:44.042Z,1
2022-08-22T18:57:27.746Z,1
2022-08-22T18:59:11.449Z,23
2022-08-22T19:00:55.157Z,23
2022-08-22T19:02:38.850Z,22
2022-08-22T19:04:22.560Z,22
2022-08-22T19:06:06.265Z,22
2022-08-22T19:07:49.969Z,22
2022-08-22T19:09:33.666Z,21
2022-08-22T19:11:17.367Z,22
2022-08-22T19:13:01.083Z,22
2022-08-22T19:14:44.772Z,22
2022-08-22T19:16:28.474Z,22
2022-08-22T19:18:12.191Z,22
2022-08-22T19:19:55.875Z,22
2022-08-22T19:21:39.592Z,22
2022-08-22T19:23:23.289Z,22
2022-08-22T19:25:06.978Z,22
2022-08-22T19:26:50.683Z,22
2022-08-22T19:28:34.386Z,22
2022-08-22T19:30:18.086Z,22
2022-08-22T19:32:01.794Z,23
2022-08-22T19:33:45.487Z,22
2022-08-22T19:35:29.197Z,23
2022-08-22T19:37:12.892Z,23
2022-08-22T19:38:56.600Z,21
2022-08-22T19:40:40.307Z,22
2022-08-22T19:42:24.002Z,23
2022-08-22T19:44:07.702Z,22
2022-08-22T19:45:51.404Z,22
2022-08-22T19:47:35.127Z,21
2022-08-22T19:49:18.808Z,22
2022-08-22T19:51:02.514Z,23
2022-08-22T19:52:46.214Z,22
2022-08-22T19:54:29.922Z,22
2022-08-22T19:56:13.620Z,23
2022-08-22T19:57:57.321Z,22
2022-08-22T19:59:41.037Z,22
2022-08-22T20:01:24.740Z,22
2022-08-22T20:03:08.427Z,22
2022-08-22T20:04:52.137Z,23
2022-08-22T20:06:35.836Z,22
2022-08-22T20:08:19.530Z,22
2022-08-22T20:10:03.230Z,22
2022-08-22T20:11:46.956Z,22
2022-08-22T20:13:30.638Z,23
2022-08-22T20:15:14.347Z,22
2022-08-22T20:16:58.047Z,22
2022-08-22T20:18:41.763Z,22
2022-08-22T20:20:25.459Z,22
2022-08-22T20:22:09.152Z,23
2022-08-22T20:23:52.862Z,22
2022-08-22T20:25:36.555Z,22
2022-08-22T20:27:20.256Z,22
2022-08-22T20:29:03.971Z,22
2022-08-22T20:30:47.686Z,22
2022-08-22T20:32:31.363Z,22
2022-08-22T20:34:15.075Z,22
2022-08-22T20:35:58.771Z,23
2022-08-22T20:37:42.473Z,22
2022-08-22T20:39:26.178Z,21
2022-08-22T20:41:09.875Z,21
2022-08-22T20:42:53.581Z,22
2022-08-22T20:44:37.287Z,23
2022-08-22T20:46:20.981Z,22
2022-08-22T20:48:04.686Z,1
2022-08-22T20:49:48.407Z,2
2022-08-22T20:51:32.086Z,1
2022-08-22T20:53:15.789Z,1
2022-08-22T20:54:59.492Z,2
2022-08-22T20:56:43.197Z,0
2022-08-22T20:58:26.901Z,1
2022-08-22T21:00:10.601Z,1
2022-08-22T21:01:54.308Z,1
2022-08-22T21:03:38.005Z,0
2022-08-22T21:05:21.720Z,1
2022-08-22T21:07:05.414Z,0
2022-08-22T21:08:49.121Z,0
2022-08-22T21:10:32.817Z,0
2022-08-22T21:12:16.517Z,1
2022-08-22T21:14:00.225Z,1
2022-08-22T21:15:43.929Z,1
2022-08-22T21:17:27.631Z,8
2022-08-22T21:19:11.326Z,9
2022-08-22T21:20:55.039Z,9
2022-08-22T21:22:38.739Z,9
2022-08-22T21:24:22.442Z,9
2022-08-22T21:26:06.138Z,9
2022-08-22T21:27:49.844Z,8
2022-08-22T21:29:33.546Z,9
2022-08-22T21:31:17.243Z,9
2022-08-22T21:33:00.955Z,9
2022-08-22T21:34:44.654Z,9
2022-08-22T21:36:28.361Z,9
2022-08-22T21:38:12.052Z,9
2022-08-22T21:39:55.757Z,9
2022-08-22T21:41:39.459Z,9
2022-08-22T21:43:23.158Z,9
2022-08-22T21:45:06.868Z,8
2022-08-22T21:46:50.577Z,9
2022-08-22T21:48:34.268Z,9
2022-08-22T21:50:17.969Z,9
2022-08-22T21:52:01.667Z,9
2022-08-22T21:53:45.367Z,8
2022-08-22T21:55:29.077Z,9
2022-08-22T21:57:12.771Z,9
2022-08-22T21:58:56.481Z,8
2022-08-22T22:00:40.182Z,8
2022-08-22T22:02:23.875Z,9
2022-08-22T22:04:07.580Z,9
2022-08-22T22:05:51.285Z,8
2022-08-22T22:07:34.977Z,9
2022-08-22T22:09:18.681Z,9
2022-08-22T22:11:02.385Z,9
2022-08-22T22:12:46.086Z,9
2022-08-22T22:14:29.790Z,9
2022-08-22T22:16:13.479Z,9
2022-08-22T22:17:57.197Z,9
2022-08-22T22:19:40.890Z,9
2022-08-22T22:21:24.599Z,9
2022-08-22T22:23:08.290Z,8
2022-08-22T22:24:51.998Z,9
2022-08-22T22:26:35.694Z,9
2022-08-22T22:28:19.402Z,1
2022-08-22T22:30:03.103Z,1
2022-08-22T22:31:46.804Z,1
2022-08-22T22:33:30.513Z,0
2022-08-22T22:35:14.210Z,1
2022-08-22T22:36:57.916Z,0
2022-08-22T22:38:41.617Z,0
2022-08-22T22:40:25.318Z,0
2022-08-22T22:42:09.014Z,1
2022-08-22T22:43:52.723Z,1
2022-08-22T22:45:36.412Z,1
2022-08-22T22:47:20.140Z,0
2022-08-22T22:49:03.824Z,1
2022-08-22T22:50:47.517Z,1
2022-08-22T22:52:31.223Z,0
2022-08-22T22:54:14.936Z,0
2022-08-22T22:55:58.633Z,1
2022-08-22T22:57:42.337Z,1
2022-08-22T22:59:26.038Z,0
2022-08-22T23:01:09.742Z,0
2022-08-22T23:02:53.444Z,2
2022-08-22T23:04:37.137Z,0
2022-08-22T23:06:20.846Z,0
2022-08-22T23:08:04.543Z,2
2022-08-22T23:09:48.236Z,1
2022-08-22T23:11:31.949Z,0
2022-08-22T23:13:15.647Z,1
2022-08-22T23:14:59.349Z,1
2022-08-22T23:16:43.053Z,1
2022-08-22T23:18:26.758Z,1
2022-08-22T23:20:10.470Z,0
2022-08-22T23:21:54.163Z,0
2022-08-22T23:23:37.853Z,0
2022-08-22T23:25:21.561Z,1
2022-08-22T23:27:05.266Z,1
2022-08-22T23:28:48.960Z,1
2022-08-22T23:30:32.671Z,1
2022-08-22T23:32:16.371Z,1
2022-08-22T23:34:00.073Z,1
2022-08-22T23:35:43.773Z,1
2022-08-22T23:37:27.478Z,1
2022-08-22T23:39:11.179Z,1
2022-08-22T23:40:54.877Z,0
2022-08-22T23:42:38.575Z,1
2022-08-22T23:44:22.279Z,2
2022-08-22T23:46:05.988Z,1
2022-08-22T23:47:49.678Z,0
2022-08-22T23:49:33.390Z,0
2022-08-22T23:51:17.094Z,1
2022-08-22T23:53:00.782Z,1
2022-08-22T23:54:44.491Z,0
2022-08-22T23:56:28.193Z,1
2022-08-22T23:58:11.892Z,1
2022-08-22T23:59:55.597Z,1
